Time;durP1;ratioP1;P1;durP2;ratioP2;P2;SDS_P1;SDS_P2;PMS_P1;PMS_P2;Temp;Humidity;BMP_temperature;BMP_pressure;BME280_temperature;BME280_humidity;BME280_pressure;Samples;Min_cycle;Max_cycle;Signal;HPM_P1;HPM_P2
2023/08/24 00:02:02;;;;;;;1.88;1.13;;;18.40;99.90;;;;;;5016680;28;20083;-71
2023/08/24 00:04:28;;;;;;;12.75;1.42;;;18.40;99.90;;;;;;4998474;28;20046;-71
2023/08/24 00:06:54;;;;;;;3.80;0.80;;;18.40;99.90;;;;;;4998767;28;20377;-72
2023/08/24 00:09:20;;;;;;;4.88;1.17;;;18.30;99.90;;;;;;5016695;28;20038;-70
2023/08/24 00:14:19;;;;;;;1.48;0.65;;;18.40;99.90;;;;;;5004074;28;20049;-71
2023/08/24 00:16:45;;;;;;;2.50;0.93;;;18.30;99.90;;;;;;5006982;28;20037;-73
2023/08/24 00:19:10;;;;;;;2.35;0.95;;;18.30;99.90;;;;;;5008452;28;20038;-72
2023/08/24 00:21:36;;;;;;;6.10;1.00;;;18.40;99.90;;;;;;4994164;28;20078;-71
2023/08/24 00:24:02;;;;;;;2.17;1.00;;;18.40;99.90;;;;;;4988265;28;20490;-73
2023/08/24 00:26:27;;;;;;;5.65;1.20;;;18.40;99.90;;;;;;4971013;28;20122;-72
2023/08/24 00:28:53;;;;;;;3.40;0.73;;;18.40;99.90;;;;;;4970485;28;20041;-71
2023/08/24 00:31:19;;;;;;;5.53;0.70;;;18.40;99.90;;;;;;4970696;28;20045;-71
2023/08/24 00:33:44;;;;;;;3.67;0.75;;;18.40;99.90;;;;;;4987779;28;20042;-72
2023/08/24 00:36:10;;;;;;;1.80;0.82;;;18.50;99.90;;;;;;4971002;28;20042;-71
2023/08/24 00:38:36;;;;;;;3.05;0.90;;;18.40;99.90;;;;;;4988305;28;20035;-72
2023/08/24 00:41:02;;;;;;;4.20;1.13;;;18.50;99.90;;;;;;4970227;28;20501;-72
2023/08/24 00:43:28;;;;;;;5.38;1.05;;;18.50;99.90;;;;;;4987650;28;20038;-72
2023/08/24 00:45:56;;;;;;;5.63;1.17;;;18.60;99.90;;;;;;4987934;28;20053;-72
2023/08/24 00:48:28;;;;;;;2.83;1.30;;;18.60;99.90;;;;;;4988667;28;20038;-73
2023/08/24 00:50:54;;;;;;;4.65;1.20;;;18.50;99.90;;;;;;4971274;28;20072;-72
2023/08/24 00:53:21;;;;;;;3.40;0.90;;;18.50;99.90;;;;;;4975408;28;20168;-72
2023/08/24 00:55:47;;;;;;;2.03;0.93;;;18.50;99.90;;;;;;4974092;28;20030;-70
2023/08/24 00:58:13;;;;;;;5.65;1.30;;;18.40;99.90;;;;;;4988199;28;20475;-72
2023/08/24 01:00:39;;;;;;;2.92;1.35;;;18.40;99.90;;;;;;4969313;28;20039;-70
2023/08/24 01:03:05;;;;;;;3.30;1.40;;;18.40;99.90;;;;;;4992192;28;20031;-71
2023/08/24 01:05:30;;;;;;;4.25;0.95;;;18.40;99.90;;;;;;4991099;28;20033;-71
2023/08/24 01:07:56;;;;;;;2.95;1.15;;;18.40;99.90;;;;;;4991471;28;20027;-71
2023/08/24 01:10:22;;;;;;;4.57;1.20;;;18.40;99.90;;;;;;4991304;28;20157;-71
2023/08/24 01:12:50;;;;;;;2.47;1.20;;;18.40;99.90;;;;;;4972660;28;20379;-71
2023/08/24 01:15:47;;;;;;;2.75;1.20;;;18.30;99.90;;;;;;4974174;28;20433;-71
2023/08/24 01:18:15;;;;;;;3.05;1.00;;;18.30;99.90;;;;;;4970983;28;20038;-71
2023/08/24 01:20:43;;;;;;;4.03;1.10;;;18.20;99.90;;;;;;4988749;28;20035;-72
2023/08/24 01:23:27;;;;;;;10.55;1.70;;;18.20;99.90;;;;;;4991678;28;20038;-72
2023/08/24 01:26:04;;;;;;;5.63;1.58;;;18.20;99.90;;;;;;4973189;28;20394;-71
2023/08/24 01:28:31;;;;;;;4.68;1.38;;;18.20;99.90;;;;;;4973383;28;20031;-72
2023/08/24 01:30:56;;;;;;;5.28;2.03;;;18.20;99.90;;;;;;4990806;28;20038;-71
2023/08/24 01:33:22;;;;;;;1.42;0.75;;;18.20;99.90;;;;;;4991472;28;20072;-72
2023/08/24 01:35:48;;;;;;;3.65;1.13;;;18.20;99.90;;;;;;4990253;28;20038;-74
2023/08/24 01:38:15;;;;;;;3.00;1.48;;;18.20;99.90;;;;;;4991407;28;20536;-71
2023/08/24 01:41:06;;;;;;;3.72;1.75;;;18.20;99.90;;;;;;4989767;28;20074;-72
2023/08/24 01:43:35;;;;;;;5.22;1.80;;;18.20;99.90;;;;;;4981198;28;20049;-72
2023/08/24 01:46:04;;;;;;;6.15;1.55;;;18.30;99.90;;;;;;4972390;28;20061;-74
2023/08/24 01:48:30;;;;;;;5.55;1.70;;;18.30;99.90;;;;;;4990092;28;20580;-72
2023/08/24 01:50:57;;;;;;;4.05;1.98;;;18.30;99.90;;;;;;4988673;28;20042;-73
2023/08/24 01:53:23;;;;;;;6.28;2.10;;;18.30;99.90;;;;;;4986525;28;20034;-72
2023/08/24 01:55:48;;;;;;;4.50;1.77;;;18.30;99.90;;;;;;4988260;28;20031;-71
2023/08/24 01:58:15;;;;;;;3.03;1.60;;;18.20;99.90;;;;;;4988954;28;20042;-74
2023/08/24 02:00:41;;;;;;;9.70;2.53;;;18.20;99.90;;;;;;4985463;28;20038;-72
2023/08/24 02:03:06;;;;;;;4.75;1.92;;;18.10;99.90;;;;;;4989749;28;20085;-73
2023/08/24 02:05:32;;;;;;;6.88;2.13;;;18.10;99.90;;;;;;4972718;28;20026;-72
2023/08/24 02:07:59;;;;;;;8.70;2.30;;;18.00;99.90;;;;;;4989590;28;20038;-71
2023/08/24 02:10:25;;;;;;;5.93;1.80;;;18.00;99.90;;;;;;4987510;28;20035;-71
2023/08/24 02:12:52;;;;;;;4.53;1.98;;;18.00;99.90;;;;;;4989535;28;20034;-71
2023/08/24 02:15:17;;;;;;;5.05;2.08;;;17.90;99.90;;;;;;4990568;28;20030;-72
2023/08/24 02:17:44;;;;;;;5.35;2.25;;;17.80;99.90;;;;;;4989114;28;20031;-72
2023/08/24 02:20:11;;;;;;;6.97;2.35;;;17.80;99.90;;;;;;4990103;28;20034;-72
2023/08/24 02:22:37;;;;;;;3.63;1.95;;;17.70;99.90;;;;;;4972288;28;20034;-72
2023/08/24 02:25:04;;;;;;;6.63;1.90;;;17.60;99.90;;;;;;4989666;28;20026;-72
2023/08/24 02:27:30;;;;;;;6.85;2.35;;;17.60;99.90;;;;;;4985700;28;20033;-71
2023/08/24 02:29:56;;;;;;;4.60;1.92;;;17.50;99.90;;;;;;4989714;28;20026;-72
2023/08/24 02:32:22;;;;;;;6.10;2.20;;;17.50;99.90;;;;;;4989595;28;20053;-71
2023/08/24 02:34:47;;;;;;;10.00;1.75;;;17.50;99.90;;;;;;4988919;28;20141;-72
2023/08/24 02:37:13;;;;;;;4.90;2.15;;;17.50;99.90;;;;;;4997283;28;20046;-72
2023/08/24 02:39:38;;;;;;;8.07;2.10;;;17.50;99.90;;;;;;4979454;28;20031;-74
2023/08/24 02:42:04;;;;;;;5.50;2.05;;;17.70;99.90;;;;;;4992957;28;20044;-72
2023/08/24 02:44:31;;;;;;;5.97;2.20;;;17.60;99.90;;;;;;4989758;28;20046;-71
2023/08/24 02:46:57;;;;;;;4.25;2.35;;;17.60;99.90;;;;;;4989238;28;20042;-73
2023/08/24 02:49:23;;;;;;;6.65;2.30;;;17.60;99.90;;;;;;4989648;28;20037;-73
2023/08/24 02:51:48;;;;;;;5.03;2.80;;;17.60;99.90;;;;;;4971427;28;20043;-71
2023/08/24 02:54:14;;;;;;;7.25;2.83;;;17.70;99.90;;;;;;4989734;28;20437;-73
2023/08/24 02:56:39;;;;;;;7.97;2.58;;;17.70;99.90;;;;;;4971335;28;20081;-72
2023/08/24 02:59:05;;;;;;;5.13;1.77;;;17.70;99.90;;;;;;4984110;28;20034;-72
2023/08/24 03:01:31;;;;;;;6.32;2.42;;;17.60;99.90;;;;;;4970818;28;20037;-71
2023/08/24 03:03:56;;;;;;;4.93;2.22;;;17.60;99.90;;;;;;4988932;28;20112;-73
2023/08/24 03:06:24;;;;;;;6.55;2.80;;;17.60;99.90;;;;;;4972139;28;20043;-72
2023/08/24 03:08:49;;;;;;;8.15;2.30;;;17.60;99.90;;;;;;4988328;28;20041;-74
2023/08/24 03:11:15;;;;;;;6.60;2.10;;;17.60;99.90;;;;;;4989221;28;20406;-71
2023/08/24 03:13:41;;;;;;;7.35;2.22;;;17.60;99.90;;;;;;4970878;28;20049;-72
2023/08/24 03:16:08;;;;;;;8.77;3.20;;;17.60;99.90;;;;;;4986559;28;20035;-71
2023/08/24 03:18:34;;;;;;;9.35;4.13;;;17.60;99.90;;;;;;4970936;28;20121;-73
2023/08/24 03:21:00;;;;;;;5.90;3.00;;;17.60;99.90;;;;;;4971537;28;20117;-73
2023/08/24 03:23:26;;;;;;;7.40;3.85;;;17.60;99.90;;;;;;4988707;28;20034;-73
2023/08/24 03:25:52;;;;;;;8.18;3.20;;;17.60;99.90;;;;;;4988949;28;20030;-71
2023/08/24 03:28:18;;;;;;;13.13;3.58;;;17.60;99.90;;;;;;4988856;28;20092;-72
2023/08/24 03:30:51;;;;;;;5.93;2.60;;;17.60;99.90;;;;;;4970525;28;20042;-73
2023/08/24 03:33:17;;;;;;;6.72;3.33;;;17.60;99.90;;;;;;4988583;28;20027;-72
2023/08/24 03:35:43;;;;;;;8.43;3.58;;;17.60;99.90;;;;;;4984110;28;20173;-71
2023/08/24 03:38:09;;;;;;;6.38;2.95;;;17.60;99.90;;;;;;4989062;28;20459;-71
2023/08/24 03:40:35;;;;;;;11.70;3.47;;;17.60;99.90;;;;;;4970801;28;20122;-71
2023/08/24 03:43:02;;;;;;;5.22;3.00;;;17.60;99.90;;;;;;4988557;28;20037;-74
2023/08/24 03:45:27;;;;;;;7.55;3.35;;;17.60;99.90;;;;;;4988494;28;20078;-71
2023/08/24 03:47:53;;;;;;;14.13;3.97;;;17.60;99.90;;;;;;4970643;28;20543;-72
2023/08/24 03:50:19;;;;;;;9.75;2.75;;;17.60;99.90;;;;;;4988880;28;20026;-72
2023/08/24 03:52:44;;;;;;;5.28;3.10;;;17.50;99.90;;;;;;4988001;28;20057;-72
2023/08/24 03:55:10;;;;;;;9.57;3.65;;;17.50;99.90;;;;;;4988865;28;20493;-72
2023/08/24 03:57:37;;;;;;;6.70;3.17;;;17.50;99.90;;;;;;4987600;28;20038;-72
2023/08/24 04:00:06;;;;;;;6.90;3.53;;;17.50;99.90;;;;;;4966184;28;20031;-72
2023/08/24 04:02:31;;;;;;;8.02;2.88;;;17.50;99.90;;;;;;4983811;28;20793;-72
2023/08/24 04:04:57;;;;;;;7.32;3.30;;;17.50;99.90;;;;;;4988394;28;20110;-71
2023/08/24 04:07:22;;;;;;;6.28;2.95;;;17.50;99.90;;;;;;4988916;28;20504;-72
2023/08/24 04:09:48;;;;;;;8.70;3.55;;;17.40;99.90;;;;;;4970039;28;20473;-74
2023/08/24 04:12:13;;;;;;;8.98;3.10;;;17.50;99.90;;;;;;4988764;28;20042;-71
2023/08/24 04:14:39;;;;;;;7.93;3.60;;;17.50;99.90;;;;;;4987948;28;20066;-74
2023/08/24 04:17:05;;;;;;;6.80;3.20;;;17.50;99.90;;;;;;4970952;28;20038;-72
2023/08/24 04:19:30;;;;;;;10.50;4.20;;;17.40;99.90;;;;;;4988238;28;20038;-72
2023/08/24 04:21:56;;;;;;;10.57;4.15;;;17.40;99.90;;;;;;4988155;28;20038;-72
2023/08/24 04:24:21;;;;;;;8.05;3.38;;;17.40;99.90;;;;;;4971417;28;20034;-71
2023/08/24 04:26:47;;;;;;;8.02;3.92;;;17.40;99.90;;;;;;4972429;28;20131;-73
2023/08/24 04:29:12;;;;;;;8.40;3.72;;;17.40;99.90;;;;;;4992109;28;20049;-73
2023/08/24 04:31:40;;;;;;;7.53;4.07;;;17.40;99.90;;;;;;4991122;28;20042;-73
2023/08/24 04:34:06;;;;;;;8.20;3.28;;;17.40;99.90;;;;;;4974771;28;20085;-70
2023/08/24 04:36:31;;;;;;;8.15;3.60;;;17.40;99.90;;;;;;4991682;28;20042;-74
2023/08/24 04:38:57;;;;;;;10.85;3.70;;;17.40;99.90;;;;;;4974308;28;20118;-73
2023/08/24 04:41:22;;;;;;;6.28;3.28;;;17.40;99.90;;;;;;4992182;28;20042;-73
2023/08/24 04:43:48;;;;;;;7.57;2.95;;;17.40;99.90;;;;;;4974079;28;20405;-72
2023/08/24 04:46:13;;;;;;;8.77;3.20;;;17.40;99.90;;;;;;4975699;28;20030;-73
2023/08/24 04:48:39;;;;;;;7.97;3.83;;;17.40;99.90;;;;;;4991550;28;20048;-71
2023/08/24 04:51:04;;;;;;;5.18;3.15;;;17.40;99.90;;;;;;4991443;28;20060;-72
2023/08/24 04:53:30;;;;;;;8.75;3.13;;;17.40;99.90;;;;;;4973944;28;20168;-72
2023/08/24 04:55:56;;;;;;;10.02;3.35;;;17.40;99.90;;;;;;4991525;28;20088;-71
2023/08/24 04:58:23;;;;;;;8.88;3.70;;;17.30;99.90;;;;;;4987207;28;20503;-73
2023/08/24 05:00:49;;;;;;;6.40;3.00;;;17.20;99.90;;;;;;4967839;28;20482;-71
2023/08/24 05:03:14;;;;;;;8.10;3.00;;;17.20;99.90;;;;;;4992902;28;20665;-73
2023/08/24 05:05:40;;;;;;;6.15;3.20;;;17.20;99.90;;;;;;4969375;28;20117;-73
2023/08/24 05:08:09;;;;;;;6.45;3.17;;;17.30;99.90;;;;;;4988981;28;20034;-72
2023/08/24 05:10:35;;;;;;;7.35;3.20;;;17.30;99.90;;;;;;4988084;28;20038;-73
2023/08/24 05:13:01;;;;;;;7.38;3.10;;;17.40;99.90;;;;;;4988061;28;20737;-72
2023/08/24 05:15:26;;;;;;;10.50;3.10;;;17.40;99.90;;;;;;4986804;28;20035;-76
2023/08/24 05:17:54;;;;;;;8.75;3.38;;;17.50;99.90;;;;;;4988157;28;20038;-72
2023/08/24 05:20:20;;;;;;;7.15;3.65;;;17.50;99.90;;;;;;4987664;28;20022;-71
2023/08/24 05:22:47;;;;;;;8.48;3.10;;;17.60;99.90;;;;;;4989964;28;20494;-71
2023/08/24 05:25:12;;;;;;;12.68;4.43;;;17.70;99.90;;;;;;4989391;28;20030;-74
2023/08/24 05:27:39;;;;;;;9.20;3.47;;;17.70;99.90;;;;;;4988212;28;20034;-71
2023/08/24 05:30:06;;;;;;;11.23;4.32;;;17.80;99.90;;;;;;4987886;28;20054;-74
2023/08/24 05:32:31;;;;;;;8.85;3.70;;;17.80;99.90;;;;;;4986564;28;20043;-74
2023/08/24 05:34:57;;;;;;;6.53;3.58;;;17.80;99.90;;;;;;4993803;28;20038;-72
2023/08/24 05:37:23;;;;;;;7.38;3.58;;;17.90;99.90;;;;;;4988369;28;20030;-71
2023/08/24 05:39:48;;;;;;;8.18;3.53;;;18.00;99.90;;;;;;4969342;28;20030;-71
2023/08/24 05:42:14;;;;;;;9.48;3.50;;;18.00;99.90;;;;;;4988212;28;20093;-73
2023/08/24 05:44:39;;;;;;;8.38;3.95;;;18.10;99.90;;;;;;4987237;28;20405;-75
2023/08/24 05:47:05;;;;;;;10.23;3.90;;;18.10;99.90;;;;;;4988113;28;20462;-73
2023/08/24 05:49:31;;;;;;;7.78;3.50;;;18.20;99.90;;;;;;4970195;28;20038;-72
2023/08/24 05:51:56;;;;;;;7.63;3.30;;;18.30;99.90;;;;;;4969325;28;20041;-73
2023/08/24 05:54:22;;;;;;;10.02;3.15;;;18.30;99.90;;;;;;4988675;28;20066;-71
2023/08/24 05:56:48;;;;;;;11.93;3.58;;;18.30;99.90;;;;;;4986750;28;20552;-71
2023/08/24 05:59:16;;;;;;;8.43;4.10;;;18.50;99.90;;;;;;4991299;28;20040;-71
2023/08/24 06:01:42;;;;;;;8.88;3.22;;;18.60;99.90;;;;;;4984438;28;20046;-74
2023/08/24 06:04:08;;;;;;;12.80;3.50;;;18.60;99.90;;;;;;4987620;28;20371;-71
2023/08/24 06:06:34;;;;;;;9.75;3.47;;;18.70;99.90;;;;;;4990186;28;20125;-71
2023/08/24 06:09:00;;;;;;;7.55;3.65;;;18.90;99.90;;;;;;4972276;28;20453;-71
2023/08/24 06:11:26;;;;;;;10.45;3.20;;;18.90;99.90;;;;;;5276977;23;20170;-70
2023/08/24 06:13:53;;;;;;;8.65;3.03;;;19.00;99.90;;;;;;4953882;28;20118;-70
2023/08/24 06:16:19;;;;;;;8.27;2.85;;;19.10;99.90;;;;;;4949147;28;20035;-70
2023/08/24 06:18:45;;;;;;;11.38;3.33;;;19.20;99.90;;;;;;4950033;28;20110;-71
2023/08/24 06:21:10;;;;;;;9.13;3.47;;;19.30;99.90;;;;;;4945501;28;20134;-71
2023/08/24 06:23:36;;;;;;;8.05;3.33;;;19.30;99.90;;;;;;4952747;28;20110;-69
2023/08/24 06:26:01;;;;;;;4.75;3.00;;;19.40;99.90;;;;;;4945575;28;20035;-72
2023/08/24 06:28:27;;;;;;;11.45;3.08;;;19.60;99.90;;;;;;4947614;28;20028;-73
2023/08/24 06:30:55;;;;;;;5.55;3.00;;;19.80;99.90;;;;;;4947890;28;20048;-71
2023/08/24 06:33:20;;;;;;;6.78;3.70;;;20.10;99.90;;;;;;4951299;28;20035;-71
2023/08/24 06:35:46;;;;;;;15.52;3.33;;;20.40;99.90;;;;;;4950479;28;20082;-71
2023/08/24 06:38:13;;;;;;;12.27;3.75;;;20.60;99.90;;;;;;4950071;28;20041;-71
2023/08/24 06:40:39;;;;;;;8.95;2.92;;;20.90;99.90;;;;;;4944399;28;20043;-71
2023/08/24 06:43:05;;;;;;;7.00;3.00;;;21.50;99.90;;;;;;4945421;28;20077;-71
2023/08/24 06:45:31;;;;;;;10.30;3.08;;;22.10;99.90;;;;;;4946477;28;20024;-71
2023/08/24 06:47:57;;;;;;;9.25;2.83;;;22.40;99.90;;;;;;4946756;28;20031;-72
2023/08/24 06:50:22;;;;;;;5.70;3.15;;;22.80;99.90;;;;;;4947604;28;20119;-70
2023/08/24 06:52:48;;;;;;;11.30;3.40;;;23.40;99.90;;;;;;4958684;28;20444;-71
2023/08/24 06:55:14;;;;;;;5.40;2.85;;;24.00;99.90;;;;;;4953160;28;20046;-70
2023/08/24 06:57:40;;;;;;;16.70;3.70;;;24.40;99.90;;;;;;4950627;28;20406;-70
2023/08/24 07:00:08;;;;;;;5.43;2.80;;;24.90;99.90;;;;;;4950268;28;20035;-71
2023/08/24 07:02:35;;;;;;;12.43;3.40;;;25.30;99.90;;;;;;4953365;28;20510;-71
2023/08/24 07:05:01;;;;;;;11.02;3.42;;;25.50;99.90;;;;;;4948693;28;20043;-71
2023/08/24 07:07:26;;;;;;;8.98;4.05;;;25.40;99.90;;;;;;4954399;28;20035;-70
2023/08/24 07:09:52;;;;;;;4.93;2.88;;;25.20;99.90;;;;;;4949866;28;20036;-71
2023/08/24 07:12:18;;;;;;;6.75;2.88;;;24.90;99.90;;;;;;4951287;28;20050;-69
2023/08/24 07:14:43;;;;;;;11.68;3.28;;;24.50;99.90;;;;;;4948787;28;20027;-70
2023/08/24 07:17:09;;;;;;;6.18;3.20;;;24.10;99.90;;;;;;4953300;28;20031;-72
2023/08/24 07:19:35;;;;;;;6.03;2.80;;;23.80;99.90;;;;;;4953591;28;20038;-70
2023/08/24 07:22:01;;;;;;;5.70;2.55;;;23.60;99.90;;;;;;4950003;28;20043;-71
2023/08/24 07:24:28;;;;;;;7.38;3.53;;;23.40;99.90;;;;;;4958593;28;20031;-70
2023/08/24 07:26:54;;;;;;;11.77;3.00;;;23.30;99.90;;;;;;4947841;28;20108;-70
2023/08/24 07:29:21;;;;;;;9.20;3.40;;;23.20;99.90;;;;;;4947370;28;20077;-71
2023/08/24 07:31:47;;;;;;;7.15;2.70;;;23.10;99.90;;;;;;4948336;28;20062;-71
2023/08/24 07:34:12;;;;;;;5.22;2.80;;;23.10;99.90;;;;;;4956063;28;20045;-73
2023/08/24 07:36:38;;;;;;;6.18;3.03;;;22.80;99.90;;;;;;4945061;28;20032;-72
2023/08/24 07:39:04;;;;;;;7.70;2.50;;;22.80;99.90;;;;;;4944752;28;20036;-71
2023/08/24 07:41:30;;;;;;;5.00;2.63;;;22.80;99.90;;;;;;4952440;28;20071;-70
2023/08/24 07:43:55;;;;;;;8.93;3.70;;;22.80;99.90;;;;;;4951857;28;20440;-69
2023/08/24 07:46:21;;;;;;;9.73;3.50;;;22.90;99.90;;;;;;4948150;28;20117;-70
2023/08/24 07:48:46;;;;;;;8.23;3.22;;;22.90;99.90;;;;;;4948821;28;20043;-70
2023/08/24 07:51:12;;;;;;;6.70;2.90;;;22.90;99.90;;;;;;4947951;28;20039;-69
2023/08/24 07:53:38;;;;;;;8.85;3.35;;;22.80;99.90;;;;;;4966552;28;20035;-70
2023/08/24 07:56:04;;;;;;;5.90;3.30;;;22.90;99.90;;;;;;4944486;28;20213;-70
2023/08/24 07:58:31;;;;;;;7.63;3.35;;;22.90;99.90;;;;;;4944488;28;20074;-70
2023/08/24 08:00:57;;;;;;;7.95;3.60;;;23.00;99.90;;;;;;4949279;28;20032;-69
2023/08/24 08:03:22;;;;;;;5.13;3.30;;;23.20;99.90;;;;;;4957953;28;20031;-70
2023/08/24 08:05:48;;;;;;;4.97;2.95;;;23.30;99.90;;;;;;4955644;28;20038;-70
2023/08/24 08:08:14;;;;;;;6.55;3.30;;;23.30;99.90;;;;;;4960836;28;20038;-72
2023/08/24 08:10:41;;;;;;;6.78;3.20;;;23.30;99.90;;;;;;4950768;28;20043;-70
2023/08/24 08:13:07;;;;;;;6.47;2.63;;;23.30;99.90;;;;;;4948602;28;20031;-71
2023/08/24 08:15:33;;;;;;;6.43;3.47;;;23.40;99.90;;;;;;4949873;28;20039;-72
2023/08/24 08:17:58;;;;;;;7.28;2.97;;;23.40;99.90;;;;;;4955948;28;20376;-70
2023/08/24 08:20:24;;;;;;;7.10;3.67;;;23.50;99.90;;;;;;4955185;28;20034;-70
2023/08/24 08:22:50;;;;;;;6.53;3.03;;;23.40;99.90;;;;;;4954283;28;20038;-70
2023/08/24 08:25:17;;;;;;;7.60;3.25;;;23.40;99.90;;;;;;4956454;28;20055;-71
2023/08/24 08:27:43;;;;;;;6.68;3.10;;;23.50;99.90;;;;;;4949696;28;20398;-72
2023/08/24 08:30:10;;;;;;;10.02;3.70;;;23.50;99.90;;;;;;4951567;28;20034;-72
2023/08/24 08:32:35;;;;;;;9.07;3.65;;;23.60;99.90;;;;;;4956768;28;20141;-71
2023/08/24 08:35:01;;;;;;;7.78;3.00;;;23.70;99.90;;;;;;4962149;28;20487;-70
2023/08/24 08:37:27;;;;;;;7.15;3.45;;;23.70;99.90;;;;;;4958715;28;20039;-71
2023/08/24 08:39:53;;;;;;;6.63;3.00;;;23.70;99.90;;;;;;4951639;28;20069;-70
2023/08/24 08:42:18;;;;;;;6.80;2.55;;;23.80;99.90;;;;;;4948273;28;20565;-71
2023/08/24 08:44:46;;;;;;;8.25;3.15;;;23.80;99.90;;;;;;4952107;28;20040;-71
2023/08/24 08:47:12;;;;;;;9.10;3.22;;;23.80;99.90;;;;;;4956001;28;20035;-72
2023/08/24 08:49:39;;;;;;;8.13;3.55;;;23.90;99.90;;;;;;4956415;28;20043;-71
2023/08/24 08:52:06;;;;;;;11.43;3.05;;;23.90;99.90;;;;;;4957735;28;20039;-70
2023/08/24 08:54:32;;;;;;;8.77;2.80;;;24.00;99.90;;;;;;4955969;28;20100;-70
2023/08/24 08:56:59;;;;;;;10.70;3.83;;;24.00;99.90;;;;;;4946003;28;20495;-71
2023/08/24 08:59:30;;;;;;;8.52;3.22;;;24.00;99.90;;;;;;4949027;28;20039;-72
2023/08/24 09:01:57;;;;;;;10.07;3.78;;;24.10;99.90;;;;;;4951050;28;20126;-72
2023/08/24 09:04:24;;;;;;;13.00;4.03;;;24.20;99.90;;;;;;4957929;28;20062;-72
2023/08/24 09:06:50;;;;;;;8.88;3.50;;;24.20;99.90;;;;;;4960242;28;20620;-70
2023/08/24 09:09:16;;;;;;;6.38;3.20;;;24.30;99.90;;;;;;4948187;28;20117;-72
2023/08/24 09:11:47;;;;;;;10.40;3.55;;;24.40;99.90;;;;;;4949751;28;20039;-70
2023/08/24 09:14:12;;;;;;;11.65;3.30;;;24.40;99.90;;;;;;4954411;28;20051;-71
2023/08/24 09:16:39;;;;;;;13.23;3.83;;;24.60;99.90;;;;;;4947433;28;20032;-71
2023/08/24 09:19:06;;;;;;;7.30;3.13;;;24.70;99.90;;;;;;4955618;28;20027;-71
2023/08/24 09:21:37;;;;;;;10.55;3.85;;;24.80;99.90;;;;;;4945339;28;20040;-70
2023/08/24 09:24:03;;;;;;;7.65;3.42;;;24.90;99.90;;;;;;4944731;28;20117;-72
2023/08/24 09:26:33;;;;;;;6.32;3.35;;;25.00;99.90;;;;;;4977154;28;20399;-70
2023/08/24 09:28:59;;;;;;;10.80;3.05;;;25.10;99.90;;;;;;4948053;28;20039;-70
2023/08/24 09:31:38;;;;;;;7.93;2.97;;;25.20;99.90;;;;;;4952229;28;20573;-72
2023/08/24 09:34:05;;;;;;;8.98;3.85;;;25.30;99.90;;;;;;4949871;28;20703;-72
2023/08/24 09:36:35;;;;;;;7.30;3.35;;;25.30;99.90;;;;;;4945038;28;20414;-71
2023/08/24 09:39:05;;;;;;;7.75;3.50;;;25.30;99.90;;;;;;4949607;28;20465;-71
2023/08/24 09:41:42;;;;;;;9.23;3.83;;;25.20;99.90;;;;;;4963187;28;20126;-71
2023/08/24 09:44:08;;;;;;;13.98;3.88;;;25.20;99.90;;;;;;4951802;28;20035;-71
2023/08/24 09:46:37;;;;;;;6.28;3.75;;;25.30;99.90;;;;;;4949706;28;20035;-70
2023/08/24 09:49:05;;;;;;;7.15;3.78;;;25.30;99.90;;;;;;4944006;28;20035;-70
2023/08/24 09:51:33;;;;;;;8.40;2.72;;;25.20;99.90;;;;;;4942480;28;20035;-69
2023/08/24 09:54:00;;;;;;;8.30;3.97;;;25.20;99.90;;;;;;4953051;28;20142;-70
2023/08/24 09:56:28;;;;;;;7.15;3.42;;;25.10;99.90;;;;;;4946920;28;20029;-70
2023/08/24 09:58:55;;;;;;;5.70;3.25;;;24.90;99.90;;;;;;4944920;28;20401;-70
2023/08/24 10:01:21;;;;;;;5.32;3.25;;;24.80;99.90;;;;;;4947238;28;20082;-71
2023/08/24 10:03:55;;;;;;;8.02;2.92;;;24.60;99.90;;;;;;4943615;28;20043;-71
2023/08/24 10:06:21;;;;;;;5.60;2.97;;;24.50;99.90;;;;;;4940653;28;20069;-71
2023/08/24 10:08:53;;;;;;;8.25;2.78;;;24.20;99.90;;;;;;4945133;28;20049;-72
2023/08/24 10:11:25;;;;;;;8.75;3.40;;;24.00;99.90;;;;;;4945662;28;20176;-71
2023/08/24 10:14:23;;;;;;;7.28;3.17;;;23.80;99.90;;;;;;4942177;28;20036;-70
2023/08/24 10:16:49;;;;;;;7.82;3.53;;;23.60;99.90;;;;;;4946022;28;20067;-70
2023/08/24 10:19:15;;;;;;;7.53;2.92;;;23.40;99.90;;;;;;4945675;28;20662;-72
2023/08/24 10:21:42;;;;;;;5.30;3.15;;;23.30;99.90;;;;;;4942205;28;20121;-72
2023/08/24 10:24:09;;;;;;;7.70;4.13;;;23.30;99.90;;;;;;4943924;28;20027;-70
2023/08/24 10:26:39;;;;;;;7.25;3.95;;;23.20;99.90;;;;;;4949288;28;20403;-71
2023/08/24 10:29:05;;;;;;;12.80;4.57;;;23.10;99.90;;;;;;4943238;28;20040;-71
2023/08/24 10:31:32;;;;;;;12.57;4.63;;;23.00;99.90;;;;;;4951969;28;20054;-70
2023/08/24 10:33:59;;;;;;;8.90;4.32;;;23.00;99.90;;;;;;4947978;28;20047;-71
2023/08/24 10:36:26;;;;;;;18.02;5.75;;;22.80;99.90;;;;;;4946716;28;20421;-70
2023/08/24 10:38:57;;;;;;;10.45;5.25;;;22.60;99.90;;;;;;4945872;28;20031;-70
2023/08/24 10:41:27;;;;;;;13.70;4.70;;;22.40;99.90;;;;;;4946358;28;20026;-70
2023/08/24 10:44:03;;;;;;;12.35;5.30;;;22.20;99.90;;;;;;4946086;28;20503;-69
2023/08/24 10:46:35;;;;;;;11.43;5.47;;;22.10;99.90;;;;;;4945484;28;20035;-70
2023/08/24 10:49:04;;;;;;;15.00;5.68;;;22.00;99.90;;;;;;4947684;28;20031;-70
2023/08/24 10:51:31;;;;;;;14.73;6.03;;;21.90;99.90;;;;;;4949736;28;20039;-69
2023/08/24 10:53:59;;;;;;;11.77;5.82;;;21.90;99.90;;;;;;4945266;28;20433;-69
2023/08/24 10:56:38;;;;;;;11.00;5.88;;;22.00;99.90;;;;;;4948929;28;20050;-70
2023/08/24 10:59:17;;;;;;;12.55;6.43;;;22.00;99.90;;;;;;4954106;28;20059;-69
2023/08/24 11:02:04;;;;;;;13.77;5.47;;;22.10;99.90;;;;;;4947216;28;20537;-70
2023/08/24 11:04:29;;;;;;;15.18;6.10;;;22.10;99.90;;;;;;4953344;28;20081;-69
2023/08/24 11:07:00;;;;;;;10.57;5.90;;;22.20;99.90;;;;;;4945288;28;20483;-71
2023/08/24 11:09:25;;;;;;;;;;;22.30;99.90;;;;;;4950392;28;20066;-71
2023/08/24 11:11:58;;;;;;;13.38;5.38;;;22.40;99.90;;;;;;4944232;28;19954;-70
2023/08/24 11:14:26;;;;;;;9.75;5.55;;;22.40;99.90;;;;;;4955749;28;20031;-70
2023/08/24 11:16:52;;;;;;;13.75;6.18;;;22.40;99.90;;;;;;4951728;28;20027;-71
2023/08/24 11:19:18;;;;;;;12.70;5.60;;;22.50;99.90;;;;;;4955919;28;20108;-70
2023/08/24 11:21:45;;;;;;;9.13;5.15;;;22.60;99.90;;;;;;4944879;28;20098;-72
2023/08/24 11:24:13;;;;;;;12.77;5.80;;;22.70;99.90;;;;;;4946957;28;20035;-70
2023/08/24 11:27:00;;;;;;;12.82;6.22;;;22.70;99.90;;;;;;4952819;28;20122;-71
2023/08/24 11:29:25;;;;;;;10.18;5.90;;;22.80;99.90;;;;;;4947985;28;20100;-71
2023/08/24 11:31:51;;;;;;;12.68;5.65;;;23.00;99.90;;;;;;4950279;28;20478;-70
2023/08/24 11:34:18;;;;;;;10.27;5.60;;;22.90;99.90;;;;;;4948101;28;20397;-69
2023/08/24 11:36:48;;;;;;;10.20;4.95;;;22.90;99.90;;;;;;4944717;28;20078;-72
2023/08/24 11:39:22;;;;;;;13.80;5.60;;;23.00;99.90;;;;;;4943970;28;20075;-70
2023/08/24 11:42:01;;;;;;;14.50;6.05;;;23.10;99.90;;;;;;4953301;28;20615;-71
2023/08/24 11:44:27;;;;;;;11.75;5.60;;;23.10;99.90;;;;;;4952528;28;20035;-70
2023/08/24 11:46:55;;;;;;;11.10;4.97;;;23.20;99.90;;;;;;4947210;28;20049;-71
2023/08/24 11:49:21;;;;;;;12.43;4.97;;;23.20;99.90;;;;;;4944367;28;20031;-71
2023/08/24 11:51:49;;;;;;;9.10;5.25;;;23.30;99.90;;;;;;4942835;28;20062;-71
2023/08/24 11:54:17;;;;;;;9.07;4.90;;;23.40;99.90;;;;;;4953822;28;20037;-71
2023/08/24 11:56:43;;;;;;;11.50;5.97;;;23.50;99.90;;;;;;4949587;28;20039;-70
2023/08/24 11:59:13;;;;;;;9.15;4.75;;;23.60;99.90;;;;;;4945864;28;20573;-70
2023/08/24 12:01:40;;;;;;;;;;;23.70;99.90;;;;;;4945858;28;20105;-70
2023/08/24 12:04:06;;;;;;;15.88;5.90;;;23.90;99.90;;;;;;4955953;28;19914;-71
2023/08/24 12:06:32;;;;;;;9.25;5.07;;;24.10;99.90;;;;;;4948676;28;20528;-71
2023/08/24 12:08:58;;;;;;;14.57;5.75;;;24.30;99.90;;;;;;4947404;28;20035;-71
2023/08/24 12:13:59;;;;;;;11.63;6.28;;;24.50;99.90;;;;;;5046892;23;20044;-72
2023/08/24 12:16:24;;;;;;;18.70;5.47;;;24.50;99.90;;;;;;5045487;28;20048;-71
2023/08/24 12:18:54;;;;;;;11.60;5.30;;;24.60;99.90;;;;;;5043170;28;20045;-71
2023/08/24 12:21:21;;;;;;;13.18;5.57;;;24.80;99.90;;;;;;5046918;28;20045;-71
2023/08/24 12:24:01;;;;;;;8.75;5.30;;;24.70;99.90;;;;;;5044913;28;20097;-71
2023/08/24 12:26:28;;;;;;;17.90;6.68;;;24.60;99.90;;;;;;5023747;28;20396;-71
2023/08/24 12:28:59;;;;;;;13.55;6.03;;;24.60;99.90;;;;;;5048389;28;20021;-71
2023/08/24 12:31:28;;;;;;;10.55;5.25;;;24.60;99.90;;;;;;5045948;28;20040;-71
2023/08/24 12:34:11;;;;;;;11.13;6.03;;;24.50;99.90;;;;;;5042937;28;20030;-71
2023/08/24 12:36:39;;;;;;;10.48;5.20;;;24.60;99.90;;;;;;5021296;28;20291;-72
2023/08/24 12:39:06;;;;;;;8.40;5.20;;;24.60;99.90;;;;;;5048846;28;20021;-72
2023/08/24 12:41:32;;;;;;;8.88;4.32;;;24.70;99.90;;;;;;5046566;28;20040;-73
2023/08/24 12:43:58;;;;;;;12.43;5.38;;;24.80;99.90;;;;;;5041133;28;20029;-72
2023/08/24 12:46:24;;;;;;;14.00;5.35;;;25.00;99.90;;;;;;5042580;28;20056;-72
2023/08/24 12:48:50;;;;;;;8.52;4.72;;;25.10;99.90;;;;;;5049343;28;20112;-72
2023/08/24 12:51:16;;;;;;;11.35;5.82;;;25.20;99.90;;;;;;5047941;28;20570;-72